createdAt,value
2018-08-16T00:01:15.176Z,22.20
2018-08-16T00:03:42.602Z,22.20
2018-08-16T00:06:10.088Z,22.20
2018-08-16T00:08:37.503Z,22.20
2018-08-16T00:11:05.067Z,22.20
2018-08-16T00:13:32.478Z,22.10
2018-08-16T00:15:59.915Z,22.10
2018-08-16T00:18:27.399Z,22.10
2018-08-16T00:20:54.821Z,22.10
2018-08-16T00:23:22.317Z,22.10
2018-08-16T00:25:49.773Z,22.10
2018-08-16T00:28:17.142Z,22.10
2018-08-16T00:30:44.650Z,22.10
2018-08-16T00:33:12.076Z,22.10
2018-08-16T00:35:39.515Z,22.10
2018-08-16T00:38:08.007Z,22.10
2018-08-16T00:40:35.454Z,22.10
2018-08-16T00:43:02.938Z,22.00
2018-08-16T00:45:30.410Z,22.00
2018-08-16T00:47:58.070Z,22.00
2018-08-16T00:50:25.442Z,22.00
2018-08-16T00:52:52.849Z,22.00
2018-08-16T00:55:20.306Z,22.00
2018-08-16T00:57:47.782Z,22.00
2018-08-16T01:00:16.223Z,22.00
2018-08-16T01:02:43.982Z,22.00
2018-08-16T01:05:12.713Z,22.00
2018-08-16T01:07:40.266Z,22.00
2018-08-16T01:10:08.845Z,22.00
2018-08-16T01:12:36.292Z,22.00
2018-08-16T01:15:05.481Z,21.90
2018-08-16T01:17:32.925Z,22.00
2018-08-16T01:20:00.338Z,21.90
2018-08-16T01:22:27.737Z,21.90
2018-08-16T01:24:55.190Z,21.90
2018-08-16T01:27:22.703Z,21.90
2018-08-16T01:29:50.186Z,21.90
2018-08-16T01:32:17.612Z,21.90
2018-08-16T01:34:45.029Z,21.90
2018-08-16T01:37:12.663Z,21.90
2018-08-16T01:39:40.093Z,21.90
2018-08-16T01:42:07.542Z,21.90
2018-08-16T01:44:35.029Z,21.80
2018-08-16T01:47:02.482Z,21.80
2018-08-16T01:49:33.351Z,21.80
2018-08-16T01:52:01.044Z,21.80
2018-08-16T01:54:29.042Z,21.70
2018-08-16T01:56:57.242Z,21.70
2018-08-16T01:59:24.686Z,21.70
2018-08-16T02:01:52.091Z,21.70
2018-08-16T02:04:19.670Z,21.70
2018-08-16T02:06:48.239Z,21.70
2018-08-16T02:09:15.852Z,21.70
2018-08-16T02:11:43.393Z,21.70
2018-08-16T02:14:10.807Z,21.70
2018-08-16T02:16:55.129Z,21.70
2018-08-16T02:19:22.690Z,21.60
2018-08-16T02:21:50.534Z,21.60
2018-08-16T02:24:18.068Z,21.60
2018-08-16T02:26:45.623Z,21.60
2018-08-16T02:29:13.130Z,21.60
2018-08-16T02:31:40.702Z,21.60
2018-08-16T02:34:08.215Z,21.60
2018-08-16T02:36:35.772Z,21.60
2018-08-16T02:39:05.271Z,21.50
2018-08-16T02:41:32.708Z,21.50
2018-08-16T02:44:00.240Z,21.50
2018-08-16T02:46:27.639Z,21.50
2018-08-16T02:48:55.059Z,21.50
2018-08-16T02:51:22.587Z,21.50
2018-08-16T02:53:50.041Z,21.50
2018-08-16T02:56:17.506Z,21.40
2018-08-16T02:58:45.031Z,21.50
2018-08-16T03:01:12.480Z,21.40
2018-08-16T03:03:39.862Z,21.40
2018-08-16T03:06:07.401Z,21.40
2018-08-16T03:08:34.797Z,21.40
2018-08-16T03:11:02.246Z,21.30
2018-08-16T03:13:29.748Z,21.30
2018-08-16T03:15:57.207Z,21.30
2018-08-16T03:18:24.587Z,21.30
2018-08-16T03:20:52.019Z,21.30
2018-08-16T03:23:19.598Z,21.30
2018-08-16T03:25:46.965Z,21.30
2018-08-16T03:28:14.369Z,21.30
2018-08-16T03:30:41.775Z,21.20
2018-08-16T03:33:09.636Z,21.20
2018-08-16T03:35:37.041Z,21.20
2018-08-16T03:38:04.953Z,21.20
2018-08-16T03:40:32.357Z,21.20
2018-08-16T03:43:00.245Z,21.20
2018-08-16T03:45:27.635Z,21.20
2018-08-16T03:47:55.038Z,21.20
2018-08-16T03:50:22.494Z,21.20
2018-08-16T03:52:49.897Z,21.20
2018-08-16T03:55:17.340Z,21.20
2018-08-16T03:57:44.797Z,21.20
2018-08-16T04:00:12.238Z,21.20
2018-08-16T04:02:39.798Z,21.10
2018-08-16T04:05:07.542Z,21.10
2018-08-16T04:07:35.093Z,21.10
2018-08-16T04:10:03.006Z,21.10
2018-08-16T04:12:30.441Z,21.00
2018-08-16T04:14:57.916Z,21.10
2018-08-16T04:17:33.125Z,21.00
2018-08-16T04:20:00.575Z,21.00
2018-08-16T04:22:28.366Z,21.00
2018-08-16T04:24:55.988Z,21.00
2018-08-16T04:27:23.543Z,21.00
2018-08-16T04:29:50.986Z,21.00
2018-08-16T04:32:18.426Z,21.00
2018-08-16T04:34:45.879Z,21.00
2018-08-16T04:37:13.279Z,20.90
2018-08-16T04:39:40.826Z,21.00
2018-08-16T04:42:08.245Z,21.00
2018-08-16T04:44:35.713Z,21.00
2018-08-16T04:47:03.277Z,21.00
2018-08-16T04:49:30.683Z,20.90
2018-08-16T04:51:58.134Z,20.80
2018-08-16T04:54:25.600Z,20.90
2018-08-16T04:56:52.994Z,20.90
2018-08-16T04:59:20.487Z,20.90
2018-08-16T05:01:47.980Z,20.90
2018-08-16T05:04:15.381Z,20.90
2018-08-16T05:06:42.853Z,20.90
2018-08-16T05:09:10.359Z,20.90
2018-08-16T05:11:38.739Z,20.90
2018-08-16T05:14:06.283Z,20.90
2018-08-16T05:16:33.749Z,20.90
2018-08-16T05:19:01.651Z,20.90
2018-08-16T05:21:29.082Z,20.90
2018-08-16T05:23:56.607Z,20.90
2018-08-16T05:26:24.084Z,20.90
2018-08-16T05:28:51.537Z,20.90
2018-08-16T05:31:18.970Z,20.90
2018-08-16T05:33:46.552Z,20.90
2018-08-16T05:36:14.102Z,20.90
2018-08-16T05:38:41.526Z,20.90
2018-08-16T05:41:09.163Z,21.10
2018-08-16T05:43:36.773Z,20.90
2018-08-16T05:46:04.355Z,20.90
2018-08-16T05:48:32.069Z,20.90
2018-08-16T05:50:59.613Z,20.90
2018-08-16T05:53:27.080Z,21.00
2018-08-16T05:55:54.533Z,21.00
2018-08-16T05:58:21.997Z,21.00
2018-08-16T06:00:49.468Z,21.00
2018-08-16T06:03:17.024Z,21.00
2018-08-16T06:05:44.547Z,21.00
2018-08-16T06:08:12.058Z,21.00
2018-08-16T06:10:39.709Z,21.00
2018-08-16T06:13:07.250Z,21.10
2018-08-16T06:15:34.796Z,21.10
2018-08-16T06:18:02.315Z,21.10
2018-08-16T06:20:30.017Z,21.10
2018-08-16T06:22:57.497Z,21.10
2018-08-16T06:25:24.995Z,21.10
2018-08-16T06:27:52.510Z,21.10
2018-08-16T06:30:20.186Z,21.20
2018-08-16T06:32:47.895Z,21.10
2018-08-16T06:35:15.558Z,21.10
2018-08-16T06:37:43.152Z,21.10
2018-08-16T06:40:12.622Z,21.20
2018-08-16T06:42:40.139Z,21.20
2018-08-16T06:45:08.653Z,21.20
2018-08-16T06:47:36.187Z,21.20
2018-08-16T06:50:04.139Z,21.20
2018-08-16T06:52:32.026Z,21.20
2018-08-16T06:54:59.682Z,21.20
2018-08-16T06:57:27.203Z,21.20
2018-08-16T06:59:54.750Z,21.20
2018-08-16T07:02:22.199Z,21.20
2018-08-16T07:04:50.015Z,21.30
2018-08-16T07:07:17.535Z,21.30
2018-08-16T07:09:45.075Z,21.30
2018-08-16T07:12:12.573Z,21.30
2018-08-16T07:14:39.909Z,21.40
2018-08-16T07:17:08.054Z,21.40
2018-08-16T07:19:35.429Z,21.40
2018-08-16T07:22:03.179Z,21.40
2018-08-16T07:24:30.956Z,21.40
2018-08-16T07:26:58.350Z,21.40
2018-08-16T07:29:25.858Z,21.50
2018-08-16T07:31:53.286Z,21.50
2018-08-16T07:34:20.820Z,21.50
2018-08-16T07:36:48.402Z,21.50
2018-08-16T07:39:16.213Z,21.50
2018-08-16T07:41:43.637Z,21.50
2018-08-16T07:44:11.096Z,21.60
2018-08-16T07:46:38.706Z,21.60
2018-08-16T07:49:06.544Z,21.60
2018-08-16T07:51:34.425Z,21.60
2018-08-16T07:54:01.630Z,21.60
2018-08-16T07:56:29.217Z,21.60
2018-08-16T07:58:56.726Z,21.60
2018-08-16T08:01:24.286Z,21.60
2018-08-16T08:03:51.874Z,21.70
2018-08-16T08:06:19.262Z,21.70
2018-08-16T08:08:46.779Z,21.70
2018-08-16T08:11:14.165Z,21.70
2018-08-16T08:13:41.890Z,21.70
2018-08-16T08:16:09.322Z,21.70
2018-08-16T08:18:36.866Z,21.70
2018-08-16T08:21:04.423Z,21.80
2018-08-16T08:23:31.848Z,21.80
2018-08-16T08:25:59.306Z,21.80
2018-08-16T08:28:26.830Z,21.80
2018-08-16T08:30:54.299Z,21.80
2018-08-16T08:33:21.790Z,21.80
2018-08-16T08:36:00.901Z,21.90
2018-08-16T08:38:28.316Z,21.90
2018-08-16T08:40:55.740Z,21.90
2018-08-16T08:43:35.039Z,21.90
2018-08-16T08:46:02.787Z,22.00
2018-08-16T08:48:30.638Z,22.00
2018-08-16T08:50:58.071Z,22.00
2018-08-16T08:54:39.230Z,22.00
2018-08-16T08:57:18.429Z,22.00
2018-08-16T08:59:45.969Z,22.10
2018-08-16T09:02:13.685Z,22.00
2018-08-16T09:04:41.250Z,22.10
2018-08-16T09:07:10.445Z,22.10
2018-08-16T09:09:42.501Z,22.20
2018-08-16T09:12:21.663Z,22.10
2018-08-16T09:15:00.590Z,22.20
2018-08-16T09:17:28.058Z,22.20
2018-08-16T09:19:55.550Z,22.30
2018-08-16T09:22:23.058Z,22.30
2018-08-16T09:24:50.490Z,22.30
2018-08-16T09:27:17.953Z,22.30
2018-08-16T09:30:24.346Z,22.30
2018-08-16T09:33:03.261Z,22.40
2018-08-16T09:35:30.819Z,22.40
2018-08-16T09:37:58.387Z,22.40
2018-08-16T09:40:25.919Z,22.40
2018-08-16T09:42:53.579Z,22.40
2018-08-16T09:45:32.692Z,22.40
2018-08-16T09:48:11.656Z,22.40
2018-08-16T09:50:39.223Z,22.40
2018-08-16T09:53:06.678Z,22.50
2018-08-16T09:55:34.154Z,22.50
2018-08-16T09:58:01.662Z,22.50
2018-08-16T10:00:34.971Z,22.50
2018-08-16T10:03:02.732Z,22.50
2018-08-16T10:05:30.205Z,22.50
2018-08-16T10:07:57.726Z,22.50
2018-08-16T10:10:25.278Z,22.50
2018-08-16T10:12:52.768Z,22.60
2018-08-16T10:15:20.186Z,22.60
2018-08-16T10:17:47.717Z,22.60
2018-08-16T10:20:15.153Z,22.60
2018-08-16T10:22:42.871Z,22.60
2018-08-16T10:25:10.244Z,22.60
2018-08-16T10:27:37.683Z,22.60
2018-08-16T10:30:06.579Z,22.70
2018-08-16T10:32:34.090Z,22.70
2018-08-16T10:35:01.575Z,22.70
2018-08-16T10:37:29.202Z,22.70
2018-08-16T10:39:56.624Z,22.70
2018-08-16T10:42:24.183Z,22.70
2018-08-16T10:44:51.614Z,22.70
2018-08-16T10:47:19.082Z,22.70
2018-08-16T10:49:46.542Z,22.80
2018-08-16T10:52:14.146Z,22.80
2018-08-16T10:54:41.646Z,22.80
2018-08-16T10:57:09.204Z,22.80
2018-08-16T10:59:36.662Z,22.80
2018-08-16T11:02:04.426Z,22.80
2018-08-16T11:04:31.839Z,22.80
2018-08-16T11:06:59.284Z,22.80
2018-08-16T11:09:26.754Z,22.90
2018-08-16T11:11:54.462Z,22.90
2018-08-16T11:14:21.894Z,22.90
2018-08-16T11:16:49.456Z,22.90
2018-08-16T11:19:17.022Z,23.00
2018-08-16T11:21:44.390Z,23.00
2018-08-16T11:24:11.819Z,23.00
2018-08-16T11:26:39.250Z,23.00
2018-08-16T11:29:06.725Z,23.10
2018-08-16T11:31:34.188Z,23.00
2018-08-16T11:34:01.694Z,23.10
2018-08-16T11:36:29.185Z,23.10
2018-08-16T11:38:56.943Z,23.20
2018-08-16T11:41:24.627Z,23.20
2018-08-16T11:43:52.038Z,23.20
2018-08-16T11:46:19.529Z,23.20
2018-08-16T11:48:46.927Z,23.30
2018-08-16T11:51:14.363Z,23.30
2018-08-16T11:53:41.785Z,23.30
2018-08-16T11:56:09.285Z,23.30
2018-08-16T11:58:36.748Z,23.40
2018-08-16T12:01:04.452Z,23.40
2018-08-16T12:03:31.995Z,23.40
2018-08-16T12:05:59.558Z,23.50
2018-08-16T12:08:26.969Z,23.50
2018-08-16T12:10:54.366Z,23.50
2018-08-16T12:13:21.914Z,23.50
2018-08-16T12:15:49.365Z,23.60
2018-08-16T12:18:16.821Z,23.60
2018-08-16T12:20:44.235Z,23.60
2018-08-16T12:23:11.666Z,23.60
2018-08-16T12:25:39.224Z,23.70
2018-08-16T12:28:06.875Z,23.70
2018-08-16T12:30:34.317Z,23.70
2018-08-16T12:33:01.775Z,23.80
2018-08-16T12:35:29.218Z,23.80
2018-08-16T12:37:56.629Z,23.90
2018-08-16T12:40:24.196Z,23.70
2018-08-16T12:42:51.665Z,23.90
2018-08-16T12:45:19.066Z,24.00
2018-08-16T12:47:46.528Z,24.10
2018-08-16T12:50:13.964Z,24.10
2018-08-16T12:52:41.386Z,24.10
2018-08-16T12:55:08.867Z,24.10
2018-08-16T12:57:36.290Z,24.10
2018-08-16T13:00:06.282Z,24.10
2018-08-16T13:02:33.841Z,24.10
2018-08-16T13:05:01.398Z,24.20
2018-08-16T13:07:28.838Z,24.20
2018-08-16T13:09:56.255Z,24.30
2018-08-16T13:12:23.737Z,24.30
2018-08-16T13:14:51.199Z,24.40
2018-08-16T13:17:18.712Z,24.40
2018-08-16T13:19:46.181Z,24.50
2018-08-16T13:22:13.643Z,24.50
2018-08-16T13:24:41.095Z,24.50
2018-08-16T13:27:08.551Z,24.50
2018-08-16T13:29:35.984Z,24.20
2018-08-16T13:32:03.912Z,24.60
2018-08-16T13:34:31.565Z,24.60
2018-08-16T13:36:59.096Z,24.70
2018-08-16T13:39:26.489Z,24.70
2018-08-16T13:41:53.943Z,24.70
2018-08-16T13:44:21.374Z,24.70
2018-08-16T13:46:48.868Z,24.80
2018-08-16T13:49:16.301Z,24.80
2018-08-16T13:51:43.857Z,24.90
2018-08-16T13:54:11.302Z,25.00
2018-08-16T13:56:38.839Z,25.00
2018-08-16T13:59:06.547Z,25.00
2018-08-16T14:01:34.015Z,25.10
2018-08-16T14:04:01.443Z,25.10
2018-08-16T14:06:28.957Z,25.10
2018-08-16T14:08:56.381Z,25.20
2018-08-16T14:11:23.997Z,25.20
2018-08-16T14:13:51.405Z,25.30
2018-08-16T14:16:18.869Z,25.30
2018-08-16T14:18:46.320Z,25.30
2018-08-16T14:21:13.713Z,25.30
2018-08-16T14:23:41.194Z,25.40
2018-08-16T14:26:08.791Z,25.40
2018-08-16T14:28:36.166Z,25.50
2018-08-16T14:31:03.931Z,25.50
2018-08-16T14:33:31.757Z,25.60
2018-08-16T14:35:59.169Z,25.60
2018-08-16T14:38:26.554Z,25.70
2018-08-16T14:40:54.009Z,25.70
2018-08-16T14:43:21.445Z,25.70
2018-08-16T14:45:48.991Z,25.80
2018-08-16T14:48:16.385Z,25.70
2018-08-16T14:50:43.858Z,25.70
2018-08-16T14:53:11.413Z,25.80
2018-08-16T14:55:38.858Z,25.80
2018-08-16T14:58:06.674Z,25.80
2018-08-16T15:00:34.177Z,25.90
2018-08-16T15:03:01.658Z,25.80
2018-08-16T15:05:29.088Z,25.80
2018-08-16T15:07:56.494Z,25.80
2018-08-16T15:10:24.103Z,25.90
2018-08-16T15:12:51.510Z,26.00
2018-08-16T15:15:18.987Z,26.00
2018-08-16T15:17:46.426Z,26.10
2018-08-16T15:20:15.004Z,26.10
2018-08-16T15:22:42.465Z,26.20
2018-08-16T15:25:10.225Z,26.20
2018-08-16T15:27:37.839Z,26.20
2018-08-16T15:30:06.543Z,26.20
2018-08-16T15:32:34.039Z,26.20
2018-08-16T15:35:01.514Z,26.20
2018-08-16T15:37:29.005Z,26.20
2018-08-16T15:39:56.453Z,26.20
2018-08-16T15:42:23.803Z,26.20
2018-08-16T15:44:51.184Z,26.20
2018-08-16T15:47:18.692Z,26.30
2018-08-16T15:49:46.335Z,26.40
2018-08-16T15:52:13.997Z,26.40
2018-08-16T15:54:41.462Z,26.60
2018-08-16T15:57:09.013Z,26.70
2018-08-16T15:59:36.386Z,26.80
2018-08-16T16:02:03.991Z,26.90
2018-08-16T16:04:31.684Z,27.10
2018-08-16T16:06:59.040Z,27.20
2018-08-16T16:09:26.561Z,27.30
2018-08-16T16:11:54.025Z,27.40
2018-08-16T16:14:21.434Z,27.50
2018-08-16T16:16:48.942Z,27.50
2018-08-16T16:19:16.353Z,27.50
2018-08-16T16:21:43.804Z,27.50
2018-08-16T16:24:11.250Z,27.50
2018-08-16T16:26:38.700Z,27.40
2018-08-16T16:29:06.191Z,27.30
2018-08-16T16:31:33.665Z,27.40
2018-08-16T16:34:01.158Z,27.30
2018-08-16T16:36:28.603Z,27.40
2018-08-16T16:38:56.042Z,27.30
2018-08-16T16:41:23.443Z,27.30
2018-08-16T16:43:50.856Z,27.20
2018-08-16T16:46:18.279Z,27.20
2018-08-16T16:48:45.706Z,27.30
2018-08-16T16:51:13.236Z,27.30
2018-08-16T16:53:40.654Z,27.30
2018-08-16T16:56:08.149Z,27.30
2018-08-16T16:58:35.717Z,27.30
2018-08-16T17:01:03.215Z,27.40
2018-08-16T17:03:30.659Z,27.30
2018-08-16T17:05:58.149Z,27.20
2018-08-16T17:08:25.816Z,27.20
2018-08-16T17:10:53.218Z,27.20
2018-08-16T17:13:20.652Z,27.10
2018-08-16T17:15:48.106Z,27.10
2018-08-16T17:18:15.535Z,27.10
2018-08-16T17:20:43.009Z,27.10
2018-08-16T17:23:10.500Z,27.10
2018-08-16T17:25:37.946Z,27.00
2018-08-16T17:28:05.592Z,27.00
2018-08-16T17:30:33.053Z,27.00
2018-08-16T17:33:00.535Z,27.00
2018-08-16T17:35:28.034Z,27.00
2018-08-16T17:37:55.631Z,26.90
2018-08-16T17:40:23.025Z,26.90
2018-08-16T17:42:50.596Z,26.90
2018-08-16T17:45:18.093Z,26.90
2018-08-16T17:47:45.655Z,26.80
2018-08-16T17:50:13.525Z,26.70
2018-08-16T17:52:41.069Z,26.70
2018-08-16T17:55:08.498Z,26.60
2018-08-16T17:57:35.981Z,26.60
2018-08-16T18:00:04.421Z,26.40
2018-08-16T18:02:32.057Z,26.40
2018-08-16T18:04:59.495Z,26.30
2018-08-16T18:07:27.031Z,26.30
2018-08-16T18:09:54.491Z,26.30
2018-08-16T18:12:21.922Z,26.20
2018-08-16T18:14:49.408Z,26.20
2018-08-16T18:17:16.879Z,26.20
2018-08-16T18:19:44.388Z,26.10
2018-08-16T18:22:11.919Z,26.10
2018-08-16T18:24:39.396Z,26.10
2018-08-16T18:27:06.883Z,26.00
2018-08-16T18:29:34.314Z,26.00
2018-08-16T18:32:01.775Z,26.00
2018-08-16T18:34:29.282Z,25.90
2018-08-16T18:36:56.796Z,26.00
2018-08-16T18:39:24.261Z,25.90
2018-08-16T18:41:51.686Z,25.90
2018-08-16T18:44:19.148Z,25.90
2018-08-16T18:46:46.643Z,25.90
2018-08-16T18:49:14.121Z,25.90
2018-08-16T18:51:41.579Z,25.80
2018-08-16T18:54:09.081Z,25.90
2018-08-16T18:56:36.601Z,25.80
2018-08-16T18:59:04.174Z,25.80
2018-08-16T19:01:31.652Z,25.80
2018-08-16T19:03:59.079Z,25.80
2018-08-16T19:06:27.688Z,25.80
2018-08-16T19:08:55.137Z,25.70
2018-08-16T19:11:22.627Z,25.70
2018-08-16T19:13:50.126Z,25.70
2018-08-16T19:16:17.549Z,25.70
2018-08-16T19:18:45.075Z,25.70
2018-08-16T19:21:12.513Z,25.70
2018-08-16T19:23:39.929Z,25.70
2018-08-16T19:26:07.498Z,25.60
2018-08-16T19:28:34.929Z,25.60
2018-08-16T19:31:02.773Z,25.60
2018-08-16T19:33:31.019Z,25.60
2018-08-16T19:35:58.664Z,25.60
2018-08-16T19:38:26.082Z,25.50
2018-08-16T19:40:53.682Z,25.50
2018-08-16T19:43:21.221Z,25.50
2018-08-16T19:45:48.860Z,25.50
2018-08-16T19:48:16.324Z,25.40
2018-08-16T19:50:43.720Z,25.50
2018-08-16T19:53:11.191Z,25.40
2018-08-16T19:55:38.649Z,25.40
2018-08-16T19:58:06.237Z,25.30
2018-08-16T20:00:33.742Z,25.40
2018-08-16T20:03:01.393Z,25.40
2018-08-16T20:05:28.973Z,25.40
2018-08-16T20:07:56.457Z,25.40
2018-08-16T20:10:23.978Z,25.40
2018-08-16T20:12:51.418Z,25.40
2018-08-16T20:15:18.941Z,25.30
2018-08-16T20:17:46.583Z,25.30
2018-08-16T20:20:14.084Z,25.30
2018-08-16T20:22:41.860Z,25.30
2018-08-16T20:25:09.446Z,25.30
2018-08-16T20:27:36.818Z,25.30
2018-08-16T20:30:05.326Z,25.20
2018-08-16T20:32:32.878Z,25.20
2018-08-16T20:35:00.329Z,25.20
2018-08-16T20:37:27.810Z,25.20
2018-08-16T20:39:55.246Z,25.20
2018-08-16T20:42:22.721Z,25.10
2018-08-16T20:44:50.302Z,25.10
2018-08-16T20:47:17.694Z,25.10
2018-08-16T20:49:45.234Z,25.10
2018-08-16T20:52:12.774Z,25.10
2018-08-16T20:54:40.279Z,25.10
2018-08-16T20:57:07.757Z,25.00
2018-08-16T20:59:35.216Z,25.00
2018-08-16T21:02:02.749Z,25.10
2018-08-16T21:04:30.421Z,25.00
2018-08-16T21:06:57.787Z,25.00
2018-08-16T21:09:25.236Z,25.00
2018-08-16T21:11:52.636Z,25.00
2018-08-16T21:14:20.126Z,25.00
2018-08-16T21:16:47.535Z,25.00
2018-08-16T21:19:14.970Z,25.00
2018-08-16T21:21:42.460Z,25.00
2018-08-16T21:24:09.929Z,24.90
2018-08-16T21:26:37.333Z,24.90
2018-08-16T21:29:04.851Z,24.90
2018-08-16T21:31:33.311Z,24.90
2018-08-16T21:34:00.735Z,24.90
2018-08-16T21:36:28.187Z,24.90
2018-08-16T21:38:55.659Z,24.90
2018-08-16T21:41:23.078Z,24.90
2018-08-16T21:43:50.582Z,24.80
2018-08-16T21:46:18.026Z,24.80
2018-08-16T21:48:45.439Z,24.80
2018-08-16T21:51:12.866Z,24.80
2018-08-16T21:53:40.301Z,24.80
2018-08-16T21:56:07.791Z,24.70
2018-08-16T21:58:35.228Z,24.70
2018-08-16T22:01:06.953Z,24.70
2018-08-16T22:03:34.560Z,24.70
2018-08-16T22:06:08.551Z,24.70
2018-08-16T22:08:38.770Z,24.60
2018-08-16T22:11:06.905Z,24.60
2018-08-16T22:13:35.570Z,24.60
2018-08-16T22:16:03.275Z,24.60
2018-08-16T22:18:30.977Z,24.50
2018-08-16T22:20:58.406Z,24.50
2018-08-16T22:23:25.825Z,24.50
2018-08-16T22:25:53.341Z,24.50
2018-08-16T22:28:20.702Z,24.50
2018-08-16T22:30:48.117Z,24.50
2018-08-16T22:33:15.556Z,24.50
2018-08-16T22:35:43.010Z,24.50
2018-08-16T22:38:10.486Z,24.40
2018-08-16T22:40:37.954Z,24.40
2018-08-16T22:43:05.507Z,24.40
2018-08-16T22:45:33.034Z,24.40
2018-08-16T22:48:00.521Z,24.40
2018-08-16T22:50:28.053Z,24.30
2018-08-16T22:52:55.474Z,24.40
2018-08-16T22:55:22.938Z,24.30
2018-08-16T22:57:50.335Z,24.30
2018-08-16T23:00:17.810Z,24.30
2018-08-16T23:02:45.150Z,24.30
2018-08-16T23:05:12.665Z,24.30
2018-08-16T23:07:40.350Z,24.20
2018-08-16T23:10:07.778Z,24.20
2018-08-16T23:12:35.154Z,24.20
2018-08-16T23:15:02.749Z,24.20
2018-08-16T23:17:30.360Z,23.90
2018-08-16T23:19:57.798Z,24.20
2018-08-16T23:22:25.269Z,24.20
2018-08-16T23:24:52.885Z,24.10
2018-08-16T23:27:20.343Z,24.10
2018-08-16T23:29:47.741Z,24.40
2018-08-16T23:32:15.093Z,24.10
2018-08-16T23:34:42.736Z,24.10
2018-08-16T23:37:10.232Z,24.10
2018-08-16T23:39:37.618Z,24.00
2018-08-16T23:42:05.108Z,24.00
2018-08-16T23:44:32.535Z,24.00
2018-08-16T23:46:59.967Z,24.00
2018-08-16T23:49:27.430Z,24.00
2018-08-16T23:51:54.870Z,24.00
2018-08-16T23:54:22.307Z,24.00
2018-08-16T23:56:49.709Z,23.90
2018-08-16T23:59:17.168Z,23.90
